createdAt,value
2017-06-28T00:03:54.284Z,16.872106
2017-06-28T00:23:59.163Z,16.872106
2017-06-28T00:44:04.204Z,16.747149999999998
2017-06-28T01:04:09.368Z,16.622194
2017-06-28T01:24:14.328Z,16.622194
2017-06-28T01:44:19.348Z,16.497238
2017-06-28T02:04:24.394Z,16.497238
2017-06-28T02:24:29.563Z,16.684672
2017-06-28T02:44:34.523Z,16.684672
2017-06-28T03:04:39.544Z,16.747149999999998
2017-06-28T03:24:44.753Z,16.809628
2017-06-28T03:44:49.744Z,17.122017999999997
2017-06-28T04:04:54.672Z,17.309452
2017-06-28T04:45:04.910Z,17.68432
2017-06-28T05:05:09.847Z,17.871754
2017-06-28T05:25:14.854Z,17.809275999999997
2017-06-28T05:45:19.900Z,17.809275999999997
2017-06-28T06:05:24.941Z,17.809275999999997
2017-06-28T06:25:30.112Z,18.622024
2017-06-28T06:45:35.043Z,17.746798
2017-06-28T07:05:40.296Z,18.809458
2017-06-28T07:25:45.264Z,19.559193999999998
2017-06-28T07:45:50.228Z,19.99654
2017-06-28T08:05:55.328Z,20.371408
2017-06-28T08:26:00.269Z,20.74681
2017-06-28T08:46:05.345Z,20.74681
2017-06-28T09:06:10.355Z,21.559023999999997
2017-06-28T09:26:15.403Z,22.62115
2017-06-28T09:46:20.599Z,23.05903
2017-06-28T10:06:25.584Z,23.308942
2017-06-28T10:26:30.628Z,22.746105999999997
2017-06-28T10:46:35.678Z,19.934061999999997
2017-06-28T11:06:40.653Z,19.37176
2017-06-28T11:26:45.761Z,18.684502
2017-06-28T11:46:50.940Z,19.059369999999998
2017-06-28T12:06:55.742Z,19.559193999999998
2017-06-28T12:27:00.889Z,19.496716
2017-06-28T12:47:05.825Z,20.059018
2017-06-28T13:07:10.899Z,20.30893
2017-06-28T13:27:15.934Z,20.74681
2017-06-28T13:47:21.052Z,21.059199999999997
2017-06-28T14:07:25.011Z,21.808936
2017-06-28T14:27:30.159Z,26.62081
2017-06-28T14:47:35.190Z,23.496375999999998
2017-06-28T15:07:40.234Z,17.559364
2017-06-28T15:27:45.280Z,18.246622
2017-06-28T15:47:50.258Z,18.934414
2017-06-28T16:07:55.295Z,18.497068
2017-06-28T16:28:00.383Z,18.871935999999998
2017-06-28T16:48:05.352Z,21.246634
2017-06-28T17:08:10.459Z,22.121326
2017-06-28T18:08:25.783Z,21.746457999999997
2017-06-28T18:28:30.677Z,21.68398
2017-06-28T18:48:35.653Z,21.68398
2017-06-28T19:28:45.793Z,21.68398
2017-06-28T19:48:50.941Z,21.68398
2017-06-28T20:08:55.820Z,21.68398
2017-06-28T20:29:00.835Z,21.68398
2017-06-28T20:49:05.929Z,21.68398
2017-06-28T21:09:10.930Z,21.68398
2017-06-28T21:29:16.229Z,21.621502
2017-06-28T22:09:26.151Z,21.621502
2017-06-28T22:29:31.102Z,21.621502
2017-06-28T22:49:36.153Z,21.621502
2017-06-28T23:09:41.292Z,21.621502
2017-06-28T23:29:46.325Z,21.621502
2017-06-28T23:49:51.260Z,21.559023999999997
